Time;durP1;ratioP1;P1;durP2;ratioP2;P2;SDS_P1;SDS_P2;PMS_P1;PMS_P2;Temp;Humidity;BMP_temperature;BMP_pressure;BME280_temperature;BME280_humidity;BME280_pressure;Samples;Min_cycle;Max_cycle;Signal;HPM_P1;HPM_P2
2022/10/04 00:00:29;;;;;;;1.35;0.62;;;;;;;6.13;100.00;98314.08;1671959;85;21416;-76
2022/10/04 00:03:11;;;;;;;0.70;0.60;;;;;;;6.12;100.00;98314.64;1665764;85;20932;-75
2022/10/04 00:05:44;;;;;;;3.20;0.50;;;;;;;6.14;100.00;98325.22;1656046;85;21563;-76
2022/10/04 00:08:33;;;;;;;3.08;0.68;;;;;;;6.12;100.00;98319.29;1673468;85;21006;-76
2022/10/04 00:11:04;;;;;;;0.68;0.53;;;;;;;6.11;100.00;98321.21;1673623;85;21171;-76
2022/10/04 00:13:31;;;;;;;2.03;0.67;;;;;;;6.10;100.00;98322.33;1672032;85;21024;-76
2022/10/04 00:16:02;;;;;;;6.10;0.53;;;;;;;6.09;100.00;98319.36;1671727;85;21524;-76
2022/10/04 00:18:38;;;;;;;4.60;0.60;;;;;;;6.06;100.00;98317.27;1673430;85;20984;-75
2022/10/04 00:21:06;;;;;;;2.75;0.55;;;;;;;6.06;100.00;98315.91;1674064;85;20905;-76
2022/10/04 00:23:45;;;;;;;4.40;0.50;;;;;;;6.05;100.00;98311.58;1673815;85;21817;-76
2022/10/04 00:26:14;;;;;;;;;;;;;;;6.05;100.00;98306.69;1676146;85;20988;-76
2022/10/04 00:28:48;;;;;;;1.82;0.72;;;;;;;6.02;100.00;98312.20;1673234;85;20088;-76
2022/10/04 00:31:27;;;;;;;0.88;0.75;;;;;;;6.01;100.00;98307.07;1673407;85;20944;-77
2022/10/04 00:34:09;;;;;;;0.72;0.33;;;;;;;5.99;100.00;98313.39;1673442;85;20905;-76
2022/10/04 00:36:47;;;;;;;0.57;0.40;;;;;;;5.98;100.00;98311.23;1657884;84;21846;-76
2022/10/04 00:39:25;;;;;;;3.80;0.50;;;;;;;5.99;100.00;98317.48;1646449;86;20904;-77
2022/10/04 00:42:09;;;;;;;3.20;0.30;;;;;;;5.99;100.00;98311.47;1646270;86;20948;-76
2022/10/04 00:44:46;;;;;;;2.95;0.30;;;;;;;6.00;100.00;98317.72;1629536;87;20960;-76
2022/10/04 00:47:42;;;;;;;0.40;0.30;;;;;;;6.02;100.00;98314.13;1646048;86;20988;-76
2022/10/04 00:50:26;;;;;;;0.60;0.30;;;;;;;6.03;100.00;98323.91;1633808;85;21189;-76
2022/10/04 00:53:05;;;;;;;0.65;0.23;;;;;;;6.03;100.00;98327.43;1646284;86;20905;-76
2022/10/04 00:55:46;;;;;;;0.50;0.37;;;;;;;6.02;100.00;98320.38;1645929;86;20905;-76
2022/10/04 00:58:20;;;;;;;0.45;0.20;;;;;;;6.06;100.00;98322.72;1646429;85;20920;-76
2022/10/04 01:00:54;;;;;;;1.37;0.42;;;;;;;6.08;100.00;98317.75;1646299;86;21562;-75
2022/10/04 01:03:41;;;;;;;0.57;0.30;;;;;;;6.07;100.00;98312.62;1646071;86;21093;-75
2022/10/04 01:06:11;;;;;;;3.37;1.20;;;;;;;6.07;100.00;98316.15;1647957;86;21007;-75
2022/10/04 01:08:47;;;;;;;0.75;0.75;;;;;;;6.07;100.00;98311.26;1645442;87;20912;-76
2022/10/04 01:11:31;;;;;;;1.15;0.30;;;;;;;6.07;100.00;98311.26;1645892;86;20988;-76
2022/10/04 01:14:05;;;;;;;1.77;0.50;;;;;;;6.06;100.00;98311.81;1645864;86;21003;-76
2022/10/04 01:16:33;;;;;;;0.45;0.40;;;;;;;6.06;100.00;98319.19;1644644;86;21207;-75
2022/10/04 01:19:26;;;;;;;0.60;0.42;;;;;;;6.06;100.00;98318.63;1645504;86;21003;-75
2022/10/04 01:22:11;;;;;;;0.28;0.28;;;;;;;6.06;100.00;98317.83;1641832;87;26475;-76
2022/10/04 01:24:44;;;;;;;1.05;0.60;;;;;;;6.07;100.00;98328.41;1622000;87;20967;-75
2022/10/04 01:27:38;;;;;;;1.07;0.60;;;;;;;6.08;100.00;98318.31;1621536;87;20865;-76
2022/10/04 01:30:15;;;;;;;1.75;0.65;;;;;;;6.10;100.00;98321.52;1642202;86;21062;-76
2022/10/04 01:32:45;;;;;;;1.12;0.72;;;;;;;6.12;100.00;98322.02;1641758;87;20948;-75
2022/10/04 01:35:13;;;;;;;1.10;0.85;;;;;;;6.12;100.00;98321.45;1641850;87;20905;-76
2022/10/04 01:37:41;;;;;;;1.17;0.78;;;;;;;6.14;100.00;98324.66;1621865;87;21012;-76
2022/10/04 01:40:13;;;;;;;1.82;1.10;;;;;;;6.16;100.00;98321.63;1641432;87;20996;-75
2022/10/04 01:42:47;;;;;;;1.10;0.70;;;;;;;6.18;100.00;98323.48;1621762;87;21581;-75
2022/10/04 01:45:29;;;;;;;0.98;0.88;;;;;;;6.19;100.00;98323.16;1641865;87;21409;-75
2022/10/04 01:47:59;;;;;;;0.65;0.65;;;;;;;6.21;100.00;98320.92;1641676;85;20944;-76
2022/10/04 01:50:54;;;;;;;2.90;0.78;;;;;;;6.24;100.00;98323.02;1641730;87;20945;-78
2022/10/04 01:53:30;;;;;;;1.00;0.70;;;;;;;6.27;100.00;98324.30;1641291;87;21000;-78
2022/10/04 01:56:17;;;;;;;1.90;0.98;;;;;;;6.28;100.00;98328.08;1621990;87;20992;-76
2022/10/04 01:58:57;;;;;;;1.22;0.90;;;;;;;6.31;100.00;98330.73;1642215;87;21495;-75
2022/10/04 02:01:36;;;;;;;5.40;0.88;;;;;;;6.33;100.00;98335.30;1642006;87;20904;-76
2022/10/04 02:04:18;;;;;;;2.45;0.88;;;;;;;6.34;100.00;98330.66;1640444;87;21456;-76
2022/10/04 02:06:45;;;;;;;2.85;1.00;;;;;;;6.37;100.00;98334.08;1641901;87;20916;-76
2022/10/04 02:09:25;;;;;;;2.58;0.90;;;;;;;6.37;100.00;98334.88;1642050;87;21618;-77
2022/10/04 02:11:57;;;;;;;1.35;0.90;;;;;;;6.39;100.00;98335.36;1641899;87;20916;-76
2022/10/04 02:14:32;;;;;;;3.22;1.00;;;;;;;6.41;100.00;98345.39;1621950;87;21533;-77
2022/10/04 02:17:04;;;;;;;2.62;1.00;;;;;;;6.43;100.00;98340.98;1626749;87;20924;-77
2022/10/04 02:19:37;;;;;;;6.58;1.27;;;;;;;6.44;100.00;98342.59;1642336;86;21099;-77
2022/10/04 02:22:09;;;;;;;1.85;1.30;;;;;;;6.46;100.00;98340.35;1641553;85;21808;-75
2022/10/04 02:24:46;;;;;;;2.20;1.20;;;;;;;6.45;100.00;98341.47;1627057;87;21487;-76
2022/10/04 02:27:15;;;;;;;1.17;1.07;;;;;;;6.48;100.00;98347.66;1621318;87;21247;-76
2022/10/04 02:29:44;;;;;;;2.20;1.25;;;;;;;6.48;100.00;98347.66;1641703;87;20964;-76
2022/10/04 02:35:03;;;;;;;3.08;1.20;;;;;;;6.50;100.00;98354.39;1641817;87;21174;-76
2022/10/04 02:37:33;;;;;;;2.42;1.82;;;;;;;6.52;100.00;98352.16;1617774;87;20984;-77
2022/10/04 02:40:09;;;;;;;2.67;1.55;;;;;;;6.54;100.00;98354.00;1640857;87;20897;-77
2022/10/04 02:43:03;;;;;;;2.12;1.60;;;;;;;6.54;100.00;98357.29;1641759;87;21535;-75
2022/10/04 02:45:51;;;;;;;5.80;1.80;;;;;;;6.56;100.00;98362.67;1622518;87;21463;-75
2022/10/04 02:48:49;;;;;;;2.05;1.57;;;;;;;6.56;100.00;98359.94;1641649;87;21207;-75
2022/10/04 02:51:37;;;;;;;6.17;2.05;;;;;;;6.57;100.00;98362.91;1641912;87;21426;-75
2022/10/04 02:54:34;;;;;;;7.15;1.87;;;;;;;6.57;100.00;98356.66;1641693;87;20908;-76
2022/10/04 02:57:01;;;;;;;4.33;1.40;;;;;;;6.59;100.00;98358.50;1641658;87;20991;-76
2022/10/04 02:59:29;;;;;;;2.85;1.72;;;;;;;6.59;100.00;98361.23;1641650;87;21004;-77
2022/10/04 03:02:00;;;;;;;7.08;2.17;;;;;;;6.60;100.00;98365.00;1642168;87;21160;-77
2022/10/04 03:04:39;;;;;;;4.83;1.60;;;;;;;6.61;100.00;98361.72;1641184;86;20999;-77
2022/10/04 03:07:13;;;;;;;3.02;1.37;;;;;;;6.62;100.00;98370.14;1621659;87;21035;-77
2022/10/04 03:09:46;;;;;;;;;;;;;;;6.63;100.00;98369.82;1644349;87;21511;-77
2022/10/04 03:12:13;;;;;;;5.10;1.50;;;;;;;6.62;100.00;98373.67;1641280;87;20126;-76
2022/10/04 03:14:41;;;;;;;5.72;2.05;;;;;;;6.63;100.00;98373.11;1594997;87;20893;-76
2022/10/04 03:17:10;;;;;;;1.80;1.62;;;;;;;6.62;100.00;98369.58;1597562;87;21067;-76
2022/10/04 03:19:45;;;;;;;5.62;1.85;;;;;;;6.65;100.00;98379.61;1641943;87;20989;-76
2022/10/04 03:22:13;;;;;;;1.80;1.40;;;;;;;6.67;100.00;98382.82;1622096;87;20932;-76
2022/10/04 03:24:46;;;;;;;2.95;1.37;;;;;;;6.67;100.00;98381.45;1641850;87;20908;-75
2022/10/04 03:27:34;;;;;;;6.78;1.65;;;;;;;6.68;100.00;98384.42;1641321;87;21267;-77
2022/10/04 03:30:00;;;;;;;5.12;1.67;;;;;;;6.67;100.00;98390.44;1636793;87;20940;-77
2022/10/04 03:32:31;;;;;;;4.17;1.50;;;;;;;6.67;100.00;98393.17;1622532;86;21044;-77
2022/10/04 03:35:11;;;;;;;3.27;1.42;;;;;;;6.67;100.00;98391.00;1647758;87;21492;-76
2022/10/04 03:37:40;;;;;;;4.20;1.60;;;;;;;6.66;100.00;98387.47;1642425;87;21059;-76
2022/10/04 03:40:08;;;;;;;8.53;1.42;;;;;;;6.67;100.00;98399.98;1647349;86;22207;-76
2022/10/04 03:42:35;;;;;;;2.45;1.40;;;;;;;6.68;100.00;98400.23;1647571;87;20893;-77
2022/10/04 03:45:11;;;;;;;2.62;1.35;;;;;;;6.68;100.00;98398.06;1647317;87;20936;-77
2022/10/04 03:47:42;;;;;;;1.87;1.30;;;;;;;6.69;100.00;98407.30;1647727;86;20916;-76
2022/10/04 03:50:25;;;;;;;3.62;1.30;;;;;;;6.69;100.00;98422.85;1647572;86;21578;-76
2022/10/04 03:53:08;;;;;;;0.50;0.50;;;;;;;6.70;100.00;98440.27;1640912;87;20908;-74
2022/10/04 03:55:42;;;;;;;0.80;0.40;;;;;;;6.66;100.00;98441.21;1629278;87;21580;-75
2022/10/04 03:58:17;;;;;;;0.68;0.33;;;;;;;6.54;100.00;98445.34;1640888;87;20988;-74
2022/10/04 04:01:04;;;;;;;1.25;0.60;;;;;;;6.45;100.00;98458.14;1663326;86;20884;-74
2022/10/04 04:03:38;;;;;;;0.82;0.35;;;;;;;6.35;100.00;98465.82;1640701;87;20868;-74
2022/10/04 04:06:12;;;;;;;0.30;0.30;;;;;;;6.23;100.00;98467.77;1639821;87;21455;-76
2022/10/04 04:08:46;;;;;;;1.02;0.40;;;;;;;6.14;100.00;98467.72;1639321;87;21011;-81
2022/10/04 04:11:24;;;;;;;4.20;0.25;;;;;;;6.09;100.00;98472.50;1646989;86;20905;-86
2022/10/04 04:13:57;;;;;;;0.60;0.20;;;;;;;6.04;100.00;98474.80;1641236;87;21024;-77
2022/10/04 04:16:29;;;;;;;0.20;0.20;;;;;;;6.01;100.00;98471.89;1650897;86;21537;-77
2022/10/04 04:18:59;;;;;;;0.25;0.25;;;;;;;6.00;100.00;98477.89;1667708;85;21175;-77
2022/10/04 04:21:29;;;;;;;2.33;0.20;;;;;;;5.95;100.00;98477.47;1650068;86;21006;-77
2022/10/04 04:24:08;;;;;;;1.10;0.30;;;;;;;5.94;100.00;98485.95;1667489;86;20936;-76
2022/10/04 04:26:45;;;;;;;1.22;0.53;;;;;;;5.94;100.00;98483.22;1652308;86;20913;-77
2022/10/04 04:29:29;;;;;;;2.33;1.20;;;;;;;5.95;100.00;98482.91;1653470;86;20900;-75
2022/10/04 04:32:27;;;;;;;3.27;1.50;;;;;;;5.94;100.00;98488.11;1669883;86;21132;-75
2022/10/04 04:35:10;;;;;;;3.50;1.10;;;;;;;5.94;100.00;98488.11;1669598;86;20941;-76
2022/10/04 04:37:47;;;;;;;1.72;0.68;;;;;;;5.93;100.00;98490.59;1669902;84;20908;-76
2022/10/04 04:40:21;;;;;;;1.00;0.80;;;;;;;5.92;100.00;98490.34;1669762;86;21000;-77
2022/10/04 04:42:55;;;;;;;1.20;0.70;;;;;;;5.94;100.00;98496.84;1652548;86;21004;-82
2022/10/04 04:45:30;;;;;;;0.60;0.60;;;;;;;5.95;100.00;98501.98;1669717;85;21752;-77
2022/10/04 04:48:08;;;;;;;3.52;2.30;;;;;;;5.98;100.00;98501.12;1669259;86;20953;-74
2022/10/04 04:50:39;;;;;;;6.30;2.12;;;;;;;5.99;100.00;98504.89;1653109;86;21563;-71
2022/10/04 04:53:15;;;;;;;3.67;1.20;;;;;;;5.99;100.00;98507.61;1669899;86;21016;-73
2022/10/04 04:55:53;;;;;;;1.72;0.80;;;;;;;6.00;100.00;98517.40;1669429;85;20937;-72
2022/10/04 04:58:40;;;;;;;1.77;0.50;;;;;;;6.00;100.00;98521.48;1669685;86;21126;-70
2022/10/04 05:01:23;;;;;;;3.92;0.42;;;;;;;6.09;100.00;98525.62;1668050;85;21031;-72
2022/10/04 05:04:14;;;;;;;0.45;0.20;;;;;;;6.13;100.00;98531.51;1669360;86;20901;-78
2022/10/04 05:06:59;;;;;;;2.83;0.70;;;;;;;6.15;100.00;98533.37;1669745;86;21024;-77
2022/10/04 05:09:32;;;;;;;2.08;1.37;;;;;;;6.17;100.00;98533.05;1669560;86;20909;-77
2022/10/04 05:12:18;;;;;;;1.37;1.02;;;;;;;6.18;100.00;98536.83;1666747;84;22110;-78
2022/10/04 05:14:51;;;;;;;0.90;0.80;;;;;;;6.20;100.00;98540.05;1646176;85;20904;-76
2022/10/04 05:17:25;;;;;;;2.33;0.90;;;;;;;6.23;100.00;98542.16;1645408;87;20991;-76
2022/10/04 05:19:56;;;;;;;1.17;0.88;;;;;;;6.27;100.00;98542.34;1643080;87;21452;-93
2022/10/04 05:22:25;;;;;;;2.90;0.80;;;;;;;6.31;100.00;98551.50;1645944;87;21396;-73
2022/10/04 05:24:55;;;;;;;1.60;1.05;;;;;;;6.38;100.00;98555.12;1646074;86;21550;-73
2022/10/04 05:27:33;;;;;;;1.50;1.00;;;;;;;6.42;100.00;98554.74;1645309;87;21496;-73
2022/10/04 05:30:47;;;;;;;2.47;1.47;;;;;;;6.46;100.00;98559.26;1646053;86;20999;-73
2022/10/04 05:33:21;;;;;;;1.40;0.85;;;;;;;6.51;100.00;98564.58;1645901;86;20968;-74
2022/10/04 05:36:10;;;;;;;2.15;0.90;;;;;;;6.54;100.00;98561.23;1629121;87;21550;-74
2022/10/04 05:39:04;;;;;;;3.42;0.90;;;;;;;6.61;100.00;98567.04;1645930;86;21546;-82
2022/10/04 05:41:38;;;;;;;2.02;1.10;;;;;;;6.66;100.00;98570.19;1662052;85;20944;-78
2022/10/04 05:44:28;;;;;;;5.30;1.27;;;;;;;6.71;100.00;98577.44;1666295;85;21003;-74
2022/10/04 05:46:58;;;;;;;2.52;1.50;;;;;;;6.73;100.00;98577.37;1645555;85;20908;-77
2022/10/04 05:49:29;;;;;;;1.95;1.00;;;;;;;6.76;100.00;98581.39;1643098;86;21075;-73
2022/10/04 05:52:04;;;;;;;3.45;1.45;;;;;;;6.80;100.00;98579.65;1644792;86;21060;-73
2022/10/04 05:54:34;;;;;;;3.55;1.37;;;;;;;6.85;100.00;98594.52;1649806;86;20972;-76
2022/10/04 05:57:28;;;;;;;4.20;1.50;;;;;;;6.89;100.00;98585.95;1645291;85;21546;-76
2022/10/04 06:00:19;;;;;;;4.70;1.45;;;;;;;6.95;100.00;98587.39;1645630;85;20904;-74
2022/10/04 06:03:41;;;;;;;3.77;1.70;;;;;;;7.00;100.00;98585.88;1644903;85;20900;-74
2022/10/04 06:06:53;;;;;;;3.12;1.60;;;;;;;7.07;100.00;98593.61;1645822;86;21259;-79
2022/10/04 06:09:43;;;;;;;4.87;1.72;;;;;;;7.13;100.00;98597.25;1645017;86;21558;-75
2022/10/04 06:12:41;;;;;;;8.60;2.40;;;;;;;7.20;100.00;98603.05;1653312;85;21064;-77
2022/10/04 06:15:30;;;;;;;3.22;1.47;;;;;;;7.28;100.00;98609.11;1672321;85;21087;-80
2022/10/04 06:18:56;;;;;;;2.72;1.22;;;;;;;7.34;100.00;98604.30;1672444;85;20967;-79
2022/10/04 06:21:27;;;;;;;3.70;1.60;;;;;;;7.37;100.00;98606.96;1672963;85;21142;-76
2022/10/04 06:24:01;;;;;;;2.55;1.30;;;;;;;7.41;100.00;98614.77;1669360;85;20900;-79
2022/10/04 06:26:47;;;;;;;4.50;1.62;;;;;;;7.43;100.00;98618.78;1670916;85;20983;-79
2022/10/04 06:29:21;;;;;;;2.77;1.47;;;;;;;7.46;100.00;98622.81;1650395;85;20916;-73
2022/10/04 06:32:15;;;;;;;7.87;1.65;;;;;;;7.47;100.00;98626.59;1676778;85;21091;-78
2022/10/04 06:35:37;;;;;;;12.33;1.98;;;;;;;7.51;100.00;98629.48;1676705;85;21254;-78
2022/10/04 06:38:35;;;;;;;3.33;1.77;;;;;;;7.52;100.00;98632.44;1649685;85;20861;-74
2022/10/04 06:41:24;;;;;;;3.58;1.80;;;;;;;7.52;100.00;98645.53;1675575;85;20900;-94
2022/10/04 06:44:26;;;;;;;5.92;2.67;;;;;;;7.55;100.00;98653.65;1682591;84;21491;-76
2022/10/04 06:47:16;;;;;;;3.80;1.95;;;;;;;7.60;100.00;98653.50;1675873;85;21070;-75
2022/10/04 06:49:49;;;;;;;6.00;2.42;;;;;;;7.61;100.00;98661.94;1664109;84;21301;-79
2022/10/04 06:52:49;;;;;;;5.58;2.15;;;;;;;7.63;100.00;98671.42;1667259;86;20943;-79
2022/10/04 06:55:32;;;;;;;9.18;2.25;;;;;;;7.70;100.00;98670.16;1667933;86;20947;-78
2022/10/04 06:58:42;;;;;;;5.22;1.75;;;;;;;7.75;100.00;98677.64;1677360;85;21554;-84
2022/10/04 07:01:27;;;;;;;7.67;1.82;;;;;;;7.79;100.00;98670.98;1672274;84;21036;-76
2022/10/04 07:04:25;;;;;;;3.02;1.70;;;;;;;7.81;100.00;98686.50;1648976;85;20981;-76
2022/10/04 07:07:24;;;;;;;5.55;2.17;;;;;;;7.80;100.00;98687.06;1672753;84;21463;-78
2022/10/04 07:10:24;;;;;;;3.77;1.87;;;;;;;7.84;100.00;98681.20;1672679;84;21612;-82
2022/10/04 07:13:15;;;;;;;3.08;1.62;;;;;;;7.86;100.00;98689.08;1670488;85;20983;-80
2022/10/04 07:16:00;;;;;;;7.10;2.12;;;;;;;7.87;100.00;98687.39;1667375;84;21419;-75
2022/10/04 07:18:51;;;;;;;5.37;1.95;;;;;;;7.91;100.00;98694.40;1667997;84;21550;-74
2022/10/04 07:21:17;;;;;;;3.80;2.12;;;;;;;7.92;100.00;98696.81;1644170;86;21028;-73
2022/10/04 07:23:54;;;;;;;8.03;1.90;;;;;;;7.98;100.00;98698.03;1663965;86;21010;-74
2022/10/04 07:26:47;;;;;;;4.55;2.02;;;;;;;8.00;100.00;98698.52;1663893;86;21020;-74
2022/10/04 07:29:35;;;;;;;6.67;1.90;;;;;;;7.99;100.00;98705.91;1645932;85;20963;-87
2022/10/04 07:32:10;;;;;;;3.30;2.20;;;;;;;7.97;100.00;98710.08;1664912;84;21240;-85
2022/10/04 07:34:54;;;;;;;4.12;2.02;;;;;;;7.97;100.00;98707.34;1666280;86;21004;-83
2022/10/04 07:37:26;;;;;;;8.85;2.05;;;;;;;7.99;100.00;98720.14;1660767;85;20996;-79
2022/10/04 07:40:03;;;;;;;;;;;;;;;8.00;100.00;98724.48;1668627;86;21563;-81
2022/10/04 07:42:45;;;;;;;3.58;2.27;;;;;;;8.02;100.00;98720.87;1664186;85;20120;-84
2022/10/04 07:45:34;;;;;;;3.15;1.77;;;;;;;8.08;100.00;98722.33;1665353;84;21141;-78
2022/10/04 07:48:22;;;;;;;5.53;2.00;;;;;;;8.16;100.00;98722.31;1667451;85;21007;-82
2022/10/04 07:51:20;;;;;;;2.55;1.72;;;;;;;8.28;100.00;98728.52;1667771;85;21020;-85
2022/10/04 07:54:03;;;;;;;2.65;1.80;;;;;;;8.44;100.00;98726.95;1659389;84;21061;-76
2022/10/04 07:56:50;;;;;;;5.45;2.42;;;;;;;8.57;100.00;98720.52;1643927;86;21072;-84
2022/10/04 08:00:01;;;;;;;3.85;1.85;;;;;;;8.73;100.00;98727.65;1675250;83;21181;-81
2022/10/04 08:03:16;;;;;;;6.25;1.85;;;;;;;8.86;100.00;98729.41;1674680;85;21447;-89
2022/10/04 08:05:56;;;;;;;3.05;1.87;;;;;;;9.00;100.00;98733.90;1657809;85;21121;-87
2022/10/04 08:09:05;;;;;;;2.72;1.70;;;;;;;9.10;100.00;98734.36;1675364;85;21023;-85
2022/10/04 08:11:43;;;;;;;8.15;3.17;;;;;;;9.14;100.00;98738.06;1673660;84;21071;-83
2022/10/04 08:14:51;;;;;;;4.30;2.90;;;;;;;9.17;100.00;98747.56;1654318;85;21562;-80
2022/10/04 08:17:40;;;;;;;7.22;2.80;;;;;;;9.18;100.00;98749.97;1672338;85;20896;-79
2022/10/04 08:20:39;;;;;;;5.25;2.45;;;;;;;9.18;100.00;98750.53;1673237;84;21040;-82
2022/10/04 08:23:46;;;;;;;5.45;2.47;;;;;;;9.14;100.00;98756.42;1673016;85;20924;-84
2022/10/04 08:26:51;;;;;;;5.00;2.77;;;;;;;9.13;100.00;98762.47;1670539;85;20917;-78
2022/10/04 08:29:42;;;;;;;;;;;;;;;9.17;100.00;98762.05;1675325;85;21170;-79
2022/10/04 08:33:05;;;;;;;6.37;2.55;;;;;;;9.21;100.00;98772.59;1672846;84;20104;-82
2022/10/04 08:35:57;;;;;;;4.08;2.12;;;;;;;9.23;100.00;98768.97;1654690;86;20968;-74
2022/10/04 08:38:49;;;;;;;7.05;2.67;;;;;;;9.23;100.00;98770.34;1650467;85;21038;-73
2022/10/04 08:42:04;;;;;;;4.20;2.50;;;;;;;9.25;100.00;98763.14;1677527;85;20892;-73
2022/10/04 08:45:08;;;;;;;3.52;1.95;;;;;;;9.27;100.00;98775.38;1650643;85;21105;-73
2022/10/04 08:48:07;;;;;;;4.53;2.42;;;;;;;9.27;100.00;98778.11;1677531;85;20983;-78
2022/10/04 08:50:58;;;;;;;9.25;2.05;;;;;;;9.26;100.00;98780.61;1677593;85;21393;-78
2022/10/04 08:54:00;;;;;;;6.95;1.85;;;;;;;9.23;100.00;98781.86;1677085;85;20912;-72
2022/10/04 08:56:57;;;;;;;6.62;1.60;;;;;;;9.19;100.00;98778.97;1675907;85;21030;-75
2022/10/04 08:59:57;;;;;;;5.22;1.90;;;;;;;9.14;100.00;98794.76;1649892;87;21173;-77
2022/10/04 09:02:35;;;;;;;9.08;2.22;;;;;;;9.09;100.00;98790.81;1649999;85;20990;-73
2022/10/04 09:05:36;;;;;;;4.80;2.00;;;;;;;9.06;100.00;98803.78;1650111;87;20900;-75
2022/10/04 09:08:34;;;;;;;3.08;1.85;;;;;;;9.06;100.00;98803.22;1623605;87;20916;-74
2022/10/04 09:11:29;;;;;;;5.12;2.50;;;;;;;9.14;100.00;98810.63;1623234;87;21011;-75
2022/10/04 09:14:33;;;;;;;4.92;2.33;;;;;;;9.23;100.00;98803.20;1624061;87;21574;-74
2022/10/04 09:17:37;;;;;;;6.10;3.05;;;;;;;9.37;100.00;98813.94;1650316;87;21098;-72
2022/10/04 09:20:30;;;;;;;5.92;2.33;;;;;;;9.46;100.00;98809.25;1650439;87;20916;-72
2022/10/04 09:23:36;;;;;;;6.10;2.87;;;;;;;9.53;100.00;98812.30;1656394;86;21581;-73
2022/10/04 09:26:25;;;;;;;5.70;3.10;;;;;;;9.63;100.00;98814.45;1658805;86;21004;-72
2022/10/04 09:29:27;;;;;;;5.75;3.05;;;;;;;9.75;100.00;98821.42;1647395;85;21908;-76
2022/10/04 09:32:35;;;;;;;8.68;4.55;;;;;;;9.82;100.00;98823.88;1648033;85;21533;-77
2022/10/04 09:35:39;;;;;;;5.25;3.10;;;;;;;9.83;100.00;98832.33;1672403;85;21060;-72
2022/10/04 09:38:37;;;;;;;4.40;3.20;;;;;;;9.77;99.76;98831.50;1674367;85;20964;-76
2022/10/04 09:41:53;;;;;;;3.25;2.55;;;;;;;9.67;98.02;98836.77;1673609;85;20904;-78
2022/10/04 09:44:49;;;;;;;2.47;1.80;;;;;;;9.62;98.99;98842.42;1673613;85;21499;-77
2022/10/04 09:47:50;;;;;;;4.90;2.67;;;;;;;9.57;98.71;98854.92;1674015;84;20896;-78
2022/10/04 09:50:30;;;;;;;3.98;2.70;;;;;;;9.56;99.72;98854.69;1674058;84;21486;-77
2022/10/04 09:53:30;;;;;;;7.12;3.25;;;;;;;9.56;98.94;98851.38;1671976;84;20953;-76
2022/10/04 09:56:05;;;;;;;7.00;3.00;;;;;;;9.55;99.12;98859.36;1674081;85;20996;-74
2022/10/04 09:59:17;;;;;;;9.13;2.22;;;;;;;9.54;99.44;98856.38;1672004;84;21272;-80
2022/10/04 10:02:01;;;;;;;7.17;3.33;;;;;;;9.52;99.13;98863.31;1674512;85;20937;-74
2022/10/04 10:04:52;;;;;;;11.63;2.60;;;;;;;9.49;99.59;98867.51;1671874;85;21007;-75
2022/10/04 10:07:46;;;;;;;5.78;3.20;;;;;;;9.48;98.26;98869.20;1673967;85;20984;-74
2022/10/04 10:13:58;;;;;;;32.55;13.22;;;;;;;9.46;99.56;98879.11;1673732;85;21277;-78
2022/10/04 10:16:40;;;;;;;12.50;5.33;;;;;;;9.42;100.00;98883.63;1673797;85;21019;-75
2022/10/04 10:19:37;;;;;;;12.78;6.33;;;;;;;9.39;100.00;98885.64;1675697;85;21673;-74
2022/10/04 10:22:27;;;;;;;18.40;5.72;;;;;;;9.38;100.00;98888.14;1649772;85;20940;-82
2022/10/04 10:25:13;;;;;;;5.70;3.60;;;;;;;9.36;100.00;98893.70;1669668;84;20992;-79
2022/10/04 10:28:10;;;;;;;11.12;5.62;;;;;;;9.36;100.00;98900.55;1672786;85;21512;-72
2022/10/04 10:31:04;;;;;;;4.37;3.33;;;;;;;9.35;100.00;98917.55;1655215;85;21023;-71
2022/10/04 10:34:28;;;;;;;6.75;4.22;;;;;;;9.32;100.00;98915.45;1673090;85;20956;-72
2022/10/04 10:37:15;;;;;;;10.15;3.85;;;;;;;9.31;100.00;98908.93;1672894;85;20905;-71
2022/10/04 10:40:17;;;;;;;8.40;3.27;;;;;;;9.37;100.00;98915.86;1655241;84;20901;-79
2022/10/04 10:43:17;;;;;;;6.75;3.30;;;;;;;9.39;100.00;98914.97;1672905;84;21149;-77
2022/10/04 10:45:57;;;;;;;6.92;3.12;;;;;;;9.42;100.00;98908.28;1671760;83;20952;-78
2022/10/04 10:49:08;;;;;;;5.22;2.77;;;;;;;9.47;100.00;98912.80;1670773;85;21597;-78
2022/10/04 10:52:06;;;;;;;5.60;3.65;;;;;;;9.46;100.00;98911.19;1671253;85;20991;-77
2022/10/04 10:55:12;;;;;;;5.50;3.90;;;;;;;9.41;100.00;98917.63;1663498;84;20980;-77
2022/10/04 10:58:10;;;;;;;8.45;3.47;;;;;;;9.41;100.00;98923.67;1670968;85;21257;-78
2022/10/04 11:00:50;;;;;;;9.88;4.50;;;;;;;9.41;100.00;98918.20;1670874;84;21027;-79
2022/10/04 11:03:59;;;;;;;8.33;4.45;;;;;;;9.43;100.00;98927.70;1673907;84;20928;-78
2022/10/04 11:06:39;;;;;;;7.87;5.12;;;;;;;9.45;100.00;98932.86;1666061;85;20988;-75
2022/10/04 11:09:28;;;;;;;9.33;6.00;;;;;;;9.47;100.00;98926.49;1665540;86;21040;-75
2022/10/04 11:12:37;;;;;;;9.55;6.90;;;;;;;9.46;100.00;98928.43;1651883;85;20979;-76
2022/10/04 11:15:38;;;;;;;7.30;4.78;;;;;;;9.47;100.00;98931.41;1661804;86;20952;-75
2022/10/04 11:18:30;;;;;;;15.60;7.28;;;;;;;9.47;100.00;98931.97;1656218;85;21551;-75
2022/10/04 11:21:44;;;;;;;9.33;5.50;;;;;;;9.46;100.00;98937.21;1671517;85;21433;-75
2022/10/04 11:24:43;;;;;;;9.65;4.00;;;;;;;9.47;100.00;98940.19;1662225;85;21507;-76
2022/10/04 11:27:44;;;;;;;9.03;4.10;;;;;;;9.46;100.00;98938.58;1672207;85;21217;-76
2022/10/04 11:30:40;;;;;;;7.35;4.25;;;;;;;9.37;100.00;98933.66;1645936;87;20980;-76
2022/10/04 11:34:07;;;;;;;9.20;5.87;;;;;;;9.30;100.00;98943.73;1655385;86;21530;-73
2022/10/04 11:37:09;;;;;;;6.30;4.60;;;;;;;9.30;100.00;98937.45;1654645;86;21043;-72
2022/10/04 11:39:55;;;;;;;3.70;3.02;;;;;;;9.33;100.00;98940.91;1643960;86;21015;-72
2022/10/04 11:42:27;;;;;;;6.47;3.75;;;;;;;9.33;100.00;98943.09;1654592;86;21180;-74
2022/10/04 11:45:32;;;;;;;4.47;3.02;;;;;;;9.34;100.00;98943.33;1655055;86;20865;-76
2022/10/04 11:48:25;;;;;;;7.28;3.67;;;;;;;9.39;100.00;98945.91;1637923;87;21555;-75
2022/10/04 11:51:11;;;;;;;5.40;3.05;;;;;;;9.47;100.00;98935.52;1652714;86;21629;-76
2022/10/04 11:54:26;;;;;;;4.83;2.85;;;;;;;9.52;100.00;98944.95;1654786;86;21512;-76
2022/10/04 11:57:41;;;;;;;7.08;3.10;;;;;;;9.56;100.00;98947.84;1633492;86;21280;-84
2022/10/04 12:00:21;;;;;;;7.97;3.33;;;;;;;9.54;100.00;98943.25;1643653;85;20917;-79
2022/10/04 12:03:08;;;;;;;;;;;;;;;9.52;100.00;98937.29;1647219;86;21060;-75
2022/10/04 12:06:16;;;;;;;7.75;2.62;;;;;;;9.52;100.00;98941.41;1654116;85;20129;-81
2022/10/04 12:09:04;;;;;;;9.40;3.47;;;;;;;9.50;100.00;98949.14;1652094;86;21004;-72
2022/10/04 12:15:18;;;;;;;6.03;3.33;;;;;;;9.43;100.00;98969.36;1636669;86;21558;-73
2022/10/04 12:18:16;;;;;;;11.63;5.75;;;;;;;9.30;100.00;98981.27;1654031;86;20996;-71
2022/10/04 12:20:58;;;;;;;6.15;3.02;;;;;;;9.16;100.00;98978.14;1643869;86;21034;-74
2022/10/04 12:23:49;;;;;;;8.40;4.08;;;;;;;8.98;100.00;98966.91;1631542;86;21439;-78
2022/10/04 12:26:42;;;;;;;4.55;3.10;;;;;;;8.82;100.00;98967.11;1653557;86;21959;-80
2022/10/04 12:29:44;;;;;;;9.23;3.12;;;;;;;8.73;100.00;98973.13;1653915;86;21031;-76
2022/10/04 12:32:21;;;;;;;4.30;2.30;;;;;;;8.66;100.00;98979.65;1628152;85;21549;-77
2022/10/04 12:35:26;;;;;;;8.03;2.65;;;;;;;8.64;100.00;98970.39;1619224;86;21013;-75
2022/10/04 12:38:50;;;;;;;5.28;2.75;;;;;;;8.66;100.00;98970.88;1612792;88;21553;-79
2022/10/04 12:41:34;;;;;;;6.12;3.02;;;;;;;8.69;100.00;98977.62;1527367;92;21200;-76
2022/10/04 12:44:18;;;;;;;9.18;2.77;;;;;;;8.69;100.00;98973.51;1570024;91;21007;-74
2022/10/04 12:47:47;;;;;;;7.65;2.45;;;;;;;8.68;100.00;98977.38;1549357;91;20975;-79
2022/10/04 12:50:49;;;;;;;4.65;2.80;;;;;;;8.69;100.00;98969.41;1583480;90;21581;-79
2022/10/04 12:53:30;;;;;;;3.00;2.40;;;;;;;8.75;100.00;98972.24;1557882;89;21540;-76
2022/10/04 12:56:35;;;;;;;7.22;5.12;;;;;;;8.79;100.00;98972.66;1554157;90;21007;-83
2022/10/04 12:59:36;;;;;;;22.35;13.08;;;;;;;8.81;100.00;98969.61;1595922;89;20916;-82
2022/10/04 13:02:20;;;;;;;42.30;20.52;;;;;;;8.85;100.00;98969.22;1591640;90;20984;-79
2022/10/04 13:05:27;;;;;;;18.37;9.60;;;;;;;8.92;100.00;98968.19;1563156;89;21015;-81
2022/10/04 13:08:25;;;;;;;27.30;16.57;;;;;;;9.00;100.00;98971.51;1583490;88;20991;-76
2022/10/04 13:11:19;;;;;;;29.52;16.48;;;;;;;9.07;100.00;98981.42;1569129;91;21339;-76
2022/10/04 13:14:14;;;;;;;26.95;14.18;;;;;;;9.14;100.00;98981.77;1570954;90;21133;-78